Ratings

414 records found.
ID Full Name Model Yacht Namesort ascending Spinnaker Rating Non-spin. Rating Base Rating Non-spin. Adj. Genoa Spin. Adj. Genoa Non-spin. Adj. Mainsail Adj. Spin Area Adj. Wskr Pole Adj. Mast Adj. Prop. Adj. Misc. Adj. Furling Adj. Certificate Expires Status
17105 Andrew Clark J-122 Zig Zag 34 56 36 19 0 0 1 -3 0 0 0 0 0 4/30/2023 Published
16542 Timothy J Grimes Melges 24 Zephyros 99 112 99 13 0 0 0 0 0 0 0 0 0 4/30/2023 Published
16963 Pete Carrico FARR 40 MH ZEPHYR -3 13 -3 16 0 0 0 0 0 0 0 0 0 4/30/2023 Published
16873 Peter Becker J-105 Young American #63 93 111 93 18 0 0 0 0 0 0 0 0 0 4/30/2023 Published
17097 Peter Becker J-105 Young American #146 86 104 93 18 0 0 -4 0 0 0 0 0 -3 4/30/2023 Published
17127 Jeremy Wilmot J-70 Yonder 117 134 117 17 0 0 0 0 0 0 0 0 0 4/30/2023 Published
16978 CHARLES SAMUELSON Beneteau First 42 TM LK Yaquina 71 94 78 22 0 0 0 -1 0 0 0 -9 3 4/30/2023 Published
16749 Mike Mulryan Pearson 303 Y KNOT 210 236 192 23 9 12 0 0 0 0 6 0 3 4/30/2023 Published
16303 Gregory Anthony Graves Constellation Wink 188 203 186 15 0 0 2 0 0 0 0 0 0 4/30/2023 Published
16962 Mc Cally, Rick Pearson 33 Windswept 207 218 189 20 6 6 0 9 0 0 0 0 3 4/30/2023 Published
16503 Nixon, Dennis Pearson Ensign Wind 275 292 255 14 14 17 0 0 0 0 0 0 6 4/30/2023 Published
16921 Millard, Michael Quest 30 Wildeyes 92 110 84 17 9 12 0 2 0 0 0 -3 0 4/30/2023 Published
16987 Grimes, Paul CTM 1 Design 35 Modified Wilde Agnes 29 50 36 14 0 0 0 -7 0 0 0 0 0 4/30/2023 Renewed
17022 Grimes, Paul CTM 1 Design 35 Modified Wilde Agnes 33 50 36 14 0 0 0 -3 0 0 0 0 0 4/30/2023 Published
16682 Tofias, Donald W-76 Wild Horses 5 22 -9 16 9 12 3 2 0 0 0 0 0 4/30/2023 Renewed
16847 Tofias, Donald W-76 Wild Horses 10 22 -9 16 9 12 3 7 0 0 0 0 0 4/30/2023 Published
16830 DOUGLAS CURTISS J-111 Wicked 2.0 42 62 42 20 0 0 0 0 0 0 0 0 0 4/30/2023 Published
16419 Higginbottom, Stephen J-30 Wicked 141 158 144 17 0 0 0 -3 -3 0 0 0 0 4/30/2023 Published
17096 John Foley C&C 32 Whirlwind 174 196 165 22 6 6 0 0 0 0 0 0 3 4/30/2023 Published
16620 Whaley, John Goman Express 35 Whalayed 114 135 102 21 6 6 0 0 0 0 0 0 6 4/30/2023 Published
16538 Steven Eddleston CTM Rhodes Sloop (12 Metre) Weatherly 29 41 30 11 0 0 0 -1 0 0 0 0 0 4/30/2023 Renewed
16882 Fragomen, Austin T. J-105 Warlock 93 111 93 18 0 0 0 0 0 0 0 0 0 4/30/2023 Published
16498 Morris, Wayne Cal 33-2 Voyager 147 171 132 21 9 12 0 0 0 0 0 0 6 4/30/2023 Published
16707 Steven Parks J-80 Vorpal 120 137 120 17 0 0 0 0 0 0 0 0 0 4/30/2023 Published
16545 Del Bonis, James Jeanneau Sun Fast 37 Vixen 114 125 105 18 0 0 0 6 -1 0 0 0 3 4/30/2023 Published
16951 Louis A. Sousa and Matthew Hayes Alerion Express 28 Victoria 150 165 141 15 6 6 0 0 0 0 0 0 3 4/30/2023 Published
16348 Kneller, Bill J-109 Vento Solare 75 94 75 19 0 0 0 0 0 0 0 0 0 4/30/2023 Published
16351 Kneller, Bill J-109 Vento Solare 72 94 75 19 0 0 0 -3 0 0 0 0 0 4/30/2023 Published
16350 Zani, Mike Graves Constellation Vela 186 201 186 15 0 0 0 0 0 0 0 0 0 4/30/2023 Published
17146 Frederick Mills Vic Carpenter Van Ki Pass -10 4 -30 23 8 8 3 9 0 0 0 0 0 4/30/2023 Published
16496 Manchester, Bob J-133 Vamoose 30 45 24 19 0 0 2 4 0 0 0 0 0 4/30/2023 Published
16398 Brooke Mastrorio J-109 Ursa 75 94 75 19 0 0 0 0 0 0 0 0 0 4/30/2023 Published
16400 Brooke Mastrorio J-109 Ursa 69 85 75 19 -6 -9 0 0 0 0 0 0 0 4/30/2023 Published
16845 Jeffrey Johnstone J-99 UPBEAT 81 100 78 19 0 0 0 0 0 0 0 0 3 4/30/2023 Published
16805 Scott Ferguson J-35 Una 89 110 75 21 8 8 0 0 0 0 0 0 6 4/30/2023 Published
16411 Wesley Bright C&C 30 Twist & Shout 48 65 48 17 0 0 0 0 0 0 0 0 0 4/30/2023 Published
16403 Joseph Lamora J-24 Twinkle Twinkle 174 193 174 19 0 0 0 0 0 0 0 0 0 4/30/2023 Published
16359 Chris Robertson J-105 True North ODR 94 112 93 18 0 0 1 0 0 0 0 0 0 4/30/2023 Published
16386 Chris Robertson J-105 True North 85 100 93 18 -9 -12 1 0 0 0 0 0 0 4/30/2023 Published
16753 Stone, Daniel J-92 Triple Play 108 125 105 17 3 3 0 0 0 0 0 0 0 4/30/2023 Published
16311 Charles Zechel Contessa 35 Tough Old Bird 139 149 114 23 6 6 0 13 0 0 0 0 6 4/30/2023 Published
16928 Robert Greene Alerion Express 28 Torii 148 163 141 15 1 1 0 0 0 0 0 0 6 4/30/2023 Published
16480 Lefort, Jack Brooklin Boat Yard Eggemoggin 47+ TINK 32 55 36 17 0 0 2 -6 0 0 0 0 0 4/30/2023 Provisional
17027 James Thorsen Pearson 28-1 30+ Thora 201 222 195 21 6 6 0 0 0 0 0 0 0 4/30/2023 Published
16662 Alfred Nazareth III Cal 25-2 Therapy 231 253 222 22 6 6 0 0 0 0 0 0 3 4/30/2023 Published
16533 William Snyder J-80 The Party Tree 120 137 120 17 0 0 0 0 0 0 0 0 0 4/30/2023 Published
17052 Lincoln Mossop CTM 1 Design 35 Modified The Cat Came Back 28 49 36 14 0 0 -1 -7 0 0 0 0 0 4/30/2023 Published
16768 Iriye, Robert & Marie J-24 Tenacious 174 193 174 19 0 0 0 0 0 0 0 0 0 4/30/2023 Published
16716 Borge, Chuck C&C 41 Tenacious 92 107 72 22 9 9 -2 7 0 0 0 0 6 4/30/2023 Published
16818 Gowell, Jay Taylor 41 Temptress 51 71 51 20 0 0 0 0 0 0 0 0 0 4/30/2023 Published

Pages